sensor_id;sensor_type;location;lat;lon;timestamp;P1;durP1;ratioP1;P2;durP2;ratioP2
21741;SDS011;11033;47.490;11.116;2022-08-02T00:01:39;9.20;;;5.10;;
21741;SDS011;11033;47.490;11.116;2022-08-02T00:04:05;4.78;;;4.38;;
21741;SDS011;11033;47.490;11.116;2022-08-02T00:06:30;5.13;;;4.15;;
21741;SDS011;11033;47.490;11.116;2022-08-02T00:08:56;7.28;;;4.43;;
21741;SDS011;11033;47.490;11.116;2022-08-02T00:11:21;5.72;;;3.95;;
21741;SDS011;11033;47.490;11.116;2022-08-02T00:13:47;6.60;;;4.15;;
21741;SDS011;11033;47.490;11.116;2022-08-02T00:16:12;4.20;;;3.70;;
21741;SDS011;11033;47.490;11.116;2022-08-02T00:18:38;6.10;;;4.40;;
21741;SDS011;11033;47.490;11.116;2022-08-02T00:21:03;7.18;;;4.50;;
21741;SDS011;11033;47.490;11.116;2022-08-02T00:23:28;5.53;;;3.90;;
21741;SDS011;11033;47.490;11.116;2022-08-02T00:25:54;6.82;;;3.92;;
21741;SDS011;11033;47.490;11.116;2022-08-02T00:28:19;5.13;;;4.30;;
21741;SDS011;11033;47.490;11.116;2022-08-02T00:30:44;5.15;;;3.67;;
21741;SDS011;11033;47.490;11.116;2022-08-02T00:33:10;4.67;;;4.00;;
21741;SDS011;11033;47.490;11.116;2022-08-02T00:35:35;5.87;;;4.10;;
21741;SDS011;11033;47.490;11.116;2022-08-02T00:38:04;4.80;;;3.70;;
21741;SDS011;11033;47.490;11.116;2022-08-02T00:40:29;6.03;;;4.25;;
21741;SDS011;11033;47.490;11.116;2022-08-02T00:43:05;6.80;;;4.60;;
21741;SDS011;11033;47.490;11.116;2022-08-02T00:45:33;5.70;;;3.70;;
21741;SDS011;11033;47.490;11.116;2022-08-02T00:48:00;10.35;;;4.85;;
21741;SDS011;11033;47.490;11.116;2022-08-02T00:50:26;6.30;;;4.35;;
21741;SDS011;11033;47.490;11.116;2022-08-02T00:52:52;6.40;;;4.82;;
21741;SDS011;11033;47.490;11.116;2022-08-02T00:55:17;9.40;;;4.63;;
21741;SDS011;11033;47.490;11.116;2022-08-02T00:57:43;8.35;;;4.60;;
21741;SDS011;11033;47.490;11.116;2022-08-02T01:00:08;5.75;;;4.30;;
21741;SDS011;11033;47.490;11.116;2022-08-02T01:02:34;5.40;;;3.75;;
21741;SDS011;11033;47.490;11.116;2022-08-02T01:05:00;6.82;;;3.63;;
21741;SDS011;11033;47.490;11.116;2022-08-02T01:07:25;3.75;;;3.42;;
21741;SDS011;11033;47.490;11.116;2022-08-02T01:09:51;4.20;;;3.50;;
21741;SDS011;11033;47.490;11.116;2022-08-02T01:12:16;4.00;;;3.35;;
21741;SDS011;11033;47.490;11.116;2022-08-02T01:14:42;5.87;;;3.67;;
21741;SDS011;11033;47.490;11.116;2022-08-02T01:17:21;6.78;;;3.90;;
21741;SDS011;11033;47.490;11.116;2022-08-02T01:30:57;3.25;;;2.95;;
21741;SDS011;11033;47.490;11.116;2022-08-02T01:33:27;3.67;;;2.92;;
21741;SDS011;11033;47.490;11.116;2022-08-02T01:35:59;2.80;;;2.50;;
21741;SDS011;11033;47.490;11.116;2022-08-02T01:38:31;3.63;;;2.63;;
21741;SDS011;11033;47.490;11.116;2022-08-02T01:41:00;4.80;;;2.97;;
21741;SDS011;11033;47.490;11.116;2022-08-02T01:43:27;3.22;;;2.60;;
21741;SDS011;11033;47.490;11.116;2022-08-02T01:45:55;2.58;;;2.38;;
21741;SDS011;11033;47.490;11.116;2022-08-02T01:48:22;5.50;;;2.70;;
21741;SDS011;11033;47.490;11.116;2022-08-02T01:50:50;2.78;;;2.50;;
21741;SDS011;11033;47.490;11.116;2022-08-02T01:53:17;3.55;;;2.55;;
21741;SDS011;11033;47.490;11.116;2022-08-02T01:55:46;2.95;;;1.92;;
21741;SDS011;11033;47.490;11.116;2022-08-02T01:58:15;2.85;;;2.55;;
21741;SDS011;11033;47.490;11.116;2022-08-02T02:00:43;2.40;;;2.00;;
21741;SDS011;11033;47.490;11.116;2022-08-02T02:03:17;2.67;;;2.47;;
21741;SDS011;11033;47.490;11.116;2022-08-02T02:05:45;3.35;;;2.30;;
21741;SDS011;11033;47.490;11.116;2022-08-02T02:08:12;2.15;;;1.95;;
21741;SDS011;11033;47.490;11.116;2022-08-02T02:10:38;4.55;;;2.05;;
21741;SDS011;11033;47.490;11.116;2022-08-02T02:13:08;2.50;;;2.30;;
21741;SDS011;11033;47.490;11.116;2022-08-02T02:15:41;2.85;;;2.60;;
21741;SDS011;11033;47.490;11.116;2022-08-02T02:18:11;5.10;;;2.55;;
21741;SDS011;11033;47.490;11.116;2022-08-02T02:20:41;2.63;;;2.10;;
21741;SDS011;11033;47.490;11.116;2022-08-02T02:23:07;3.22;;;2.17;;
21741;SDS011;11033;47.490;11.116;2022-08-02T02:25:32;2.25;;;2.00;;
21741;SDS011;11033;47.490;11.116;2022-08-02T02:28:00;4.25;;;2.42;;
21741;SDS011;11033;47.490;11.116;2022-08-02T02:30:28;3.97;;;2.00;;
21741;SDS011;11033;47.490;11.116;2022-08-02T02:32:57;4.00;;;1.90;;
21741;SDS011;11033;47.490;11.116;2022-08-02T02:35:26;3.00;;;1.90;;
21741;SDS011;11033;47.490;11.116;2022-08-02T02:37:53;2.88;;;2.03;;
21741;SDS011;11033;47.490;11.116;2022-08-02T02:40:22;4.38;;;2.60;;
21741;SDS011;11033;47.490;11.116;2022-08-02T02:42:49;2.10;;;1.90;;
21741;SDS011;11033;47.490;11.116;2022-08-02T02:45:15;2.38;;;2.17;;
21741;SDS011;11033;47.490;11.116;2022-08-02T02:47:44;1.70;;;1.60;;
21741;SDS011;11033;47.490;11.116;2022-08-02T02:50:13;1.98;;;1.77;;
21741;SDS011;11033;47.490;11.116;2022-08-02T02:52:40;1.60;;;1.40;;
21741;SDS011;11033;47.490;11.116;2022-08-02T02:55:06;2.50;;;1.55;;
21741;SDS011;11033;47.490;11.116;2022-08-02T02:57:34;2.55;;;2.05;;
21741;SDS011;11033;47.490;11.116;2022-08-02T03:00:02;3.28;;;1.67;;
21741;SDS011;11033;47.490;11.116;2022-08-02T03:02:30;2.08;;;1.77;;
21741;SDS011;11033;47.490;11.116;2022-08-02T03:04:56;1.55;;;1.45;;
21741;SDS011;11033;47.490;11.116;2022-08-02T03:07:22;2.58;;;1.65;;
21741;SDS011;11033;47.490;11.116;2022-08-02T03:09:48;1.42;;;1.20;;
21741;SDS011;11033;47.490;11.116;2022-08-02T03:12:13;1.52;;;1.42;;
21741;SDS011;11033;47.490;11.116;2022-08-02T03:14:42;3.55;;;1.50;;
21741;SDS011;11033;47.490;11.116;2022-08-02T03:17:08;2.35;;;2.15;;
21741;SDS011;11033;47.490;11.116;2022-08-02T03:19:33;2.75;;;1.65;;
21741;SDS011;11033;47.490;11.116;2022-08-02T03:21:58;3.78;;;2.22;;
21741;SDS011;11033;47.490;11.116;2022-08-02T03:24:24;2.95;;;1.90;;
21741;SDS011;11033;47.490;11.116;2022-08-02T03:26:49;4.50;;;1.52;;
21741;SDS011;11033;47.490;11.116;2022-08-02T03:29:14;2.22;;;1.80;;
21741;SDS011;11033;47.490;11.116;2022-08-02T03:31:40;1.73;;;1.40;;
21741;SDS011;11033;47.490;11.116;2022-08-02T03:34:09;2.20;;;1.48;;
21741;SDS011;11033;47.490;11.116;2022-08-02T03:36:34;1.92;;;1.70;;
21741;SDS011;11033;47.490;11.116;2022-08-02T03:39:00;2.67;;;1.92;;
21741;SDS011;11033;47.490;11.116;2022-08-02T03:41:27;1.55;;;1.45;;
21741;SDS011;11033;47.490;11.116;2022-08-02T03:43:53;3.05;;;1.90;;
21741;SDS011;11033;47.490;11.116;2022-08-02T03:46:20;1.88;;;1.50;;
21741;SDS011;11033;47.490;11.116;2022-08-02T03:48:48;2.25;;;1.45;;
21741;SDS011;11033;47.490;11.116;2022-08-02T03:51:15;4.00;;;1.85;;
21741;SDS011;11033;47.490;11.116;2022-08-02T03:53:42;4.20;;;1.83;;
21741;SDS011;11033;47.490;11.116;2022-08-02T03:56:08;1.70;;;1.60;;
21741;SDS011;11033;47.490;11.116;2022-08-02T03:58:33;1.92;;;1.50;;
21741;SDS011;11033;47.490;11.116;2022-08-02T04:00:59;1.83;;;1.55;;
21741;SDS011;11033;47.490;11.116;2022-08-02T04:03:24;2.22;;;1.40;;
21741;SDS011;11033;47.490;11.116;2022-08-02T04:05:50;2.05;;;1.40;;
21741;SDS011;11033;47.490;11.116;2022-08-02T04:08:16;2.78;;;1.65;;
21741;SDS011;11033;47.490;11.116;2022-08-02T04:10:41;1.75;;;1.50;;
21741;SDS011;11033;47.490;11.116;2022-08-02T04:13:34;2.65;;;1.30;;
21741;SDS011;11033;47.490;11.116;2022-08-02T04:16:19;1.27;;;1.17;;
21741;SDS011;11033;47.490;11.116;2022-08-02T04:18:54;1.70;;;1.60;;
21741;SDS011;11033;47.490;11.116;2022-08-02T04:21:20;1.40;;;1.30;;
21741;SDS011;11033;47.490;11.116;2022-08-02T04:23:50;2.40;;;1.88;;
21741;SDS011;11033;47.490;11.116;2022-08-02T04:26:17;2.45;;;1.38;;
21741;SDS011;11033;47.490;11.116;2022-08-02T04:28:44;1.45;;;1.35;;
21741;SDS011;11033;47.490;11.116;2022-08-02T04:31:10;1.58;;;1.30;;
21741;SDS011;11033;47.490;11.116;2022-08-02T04:33:36;1.85;;;1.70;;
21741;SDS011;11033;47.490;11.116;2022-08-02T04:36:03;1.50;;;1.40;;
21741;SDS011;11033;47.490;11.116;2022-08-02T04:38:30;4.22;;;1.65;;
21741;SDS011;11033;47.490;11.116;2022-08-02T04:40:55;1.40;;;1.30;;
21741;SDS011;11033;47.490;11.116;2022-08-02T04:43:21;1.50;;;1.30;;
21741;SDS011;11033;47.490;11.116;2022-08-02T04:45:47;1.40;;;1.30;;
21741;SDS011;11033;47.490;11.116;2022-08-02T04:48:15;1.38;;;1.27;;
21741;SDS011;11033;47.490;11.116;2022-08-02T04:50:40;3.92;;;1.63;;
21741;SDS011;11033;47.490;11.116;2022-08-02T04:53:06;2.28;;;1.40;;
21741;SDS011;11033;47.490;11.116;2022-08-02T04:55:31;3.65;;;1.60;;
21741;SDS011;11033;47.490;11.116;2022-08-02T04:57:57;1.50;;;1.40;;
21741;SDS011;11033;47.490;11.116;2022-08-02T05:00:23;2.95;;;1.50;;
21741;SDS011;11033;47.490;11.116;2022-08-02T05:02:49;2.47;;;1.88;;
21741;SDS011;11033;47.490;11.116;2022-08-02T05:05:16;2.33;;;1.88;;
21741;SDS011;11033;47.490;11.116;2022-08-02T05:07:42;1.58;;;1.23;;
21741;SDS011;11033;47.490;11.116;2022-08-02T05:10:07;3.20;;;1.50;;
21741;SDS011;11033;47.490;11.116;2022-08-02T05:12:33;1.63;;;1.52;;
21741;SDS011;11033;47.490;11.116;2022-08-02T05:14:58;3.53;;;1.40;;
21741;SDS011;11033;47.490;11.116;2022-08-02T05:17:23;1.33;;;1.23;;
21741;SDS011;11033;47.490;11.116;2022-08-02T05:19:48;1.67;;;1.57;;
21741;SDS011;11033;47.490;11.116;2022-08-02T05:22:14;1.93;;;1.43;;
21741;SDS011;11033;47.490;11.116;2022-08-02T05:24:39;1.20;;;1.02;;
21741;SDS011;11033;47.490;11.116;2022-08-02T05:27:04;4.85;;;1.48;;
21741;SDS011;11033;47.490;11.116;2022-08-02T05:29:30;1.50;;;1.40;;
21741;SDS011;11033;47.490;11.116;2022-08-02T05:31:55;1.13;;;1.03;;
21741;SDS011;11033;47.490;11.116;2022-08-02T05:34:20;3.93;;;1.70;;
21741;SDS011;11033;47.490;11.116;2022-08-02T05:36:45;1.80;;;1.70;;
21741;SDS011;11033;47.490;11.116;2022-08-02T05:39:11;1.48;;;1.38;;
21741;SDS011;11033;47.490;11.116;2022-08-02T05:41:36;1.60;;;1.50;;
21741;SDS011;11033;47.490;11.116;2022-08-02T05:44:02;1.40;;;1.30;;
21741;SDS011;11033;47.490;11.116;2022-08-02T05:46:28;1.52;;;1.42;;
21741;SDS011;11033;47.490;11.116;2022-08-02T05:48:53;6.40;;;1.98;;
21741;SDS011;11033;47.490;11.116;2022-08-02T05:51:21;2.90;;;1.98;;
21741;SDS011;11033;47.490;11.116;2022-08-02T05:54:01;1.63;;;1.52;;
21741;SDS011;11033;47.490;11.116;2022-08-02T05:56:37;7.45;;;1.73;;
21741;SDS011;11033;47.490;11.116;2022-08-02T06:02:16;1.77;;;1.27;;
21741;SDS011;11033;47.490;11.116;2022-08-02T06:04:53;1.52;;;1.42;;
21741;SDS011;11033;47.490;11.116;2022-08-02T06:07:27;1.48;;;1.38;;
21741;SDS011;11033;47.490;11.116;2022-08-02T06:09:54;2.20;;;1.52;;
21741;SDS011;11033;47.490;11.116;2022-08-02T06:12:20;4.10;;;1.70;;
21741;SDS011;11033;47.490;11.116;2022-08-02T06:14:49;3.10;;;1.80;;
21741;SDS011;11033;47.490;11.116;2022-08-02T06:17:16;1.80;;;1.70;;
21741;SDS011;11033;47.490;11.116;2022-08-02T06:19:43;2.20;;;1.42;;
21741;SDS011;11033;47.490;11.116;2022-08-02T06:22:10;2.15;;;1.60;;
21741;SDS011;11033;47.490;11.116;2022-08-02T06:24:43;2.57;;;1.83;;
21741;SDS011;11033;47.490;11.116;2022-08-02T06:27:13;5.32;;;1.85;;
21741;SDS011;11033;47.490;11.116;2022-08-02T06:29:39;1.77;;;1.63;;
21741;SDS011;11033;47.490;11.116;2022-08-02T06:32:06;1.88;;;1.52;;
21741;SDS011;11033;47.490;11.116;2022-08-02T06:34:38;6.15;;;2.53;;
21741;SDS011;11033;47.490;11.116;2022-08-02T06:39:48;2.67;;;1.77;;
21741;SDS011;11033;47.490;11.116;2022-08-02T06:42:23;2.33;;;1.58;;
21741;SDS011;11033;47.490;11.116;2022-08-02T06:44:53;2.08;;;1.40;;
21741;SDS011;11033;47.490;11.116;2022-08-02T06:47:19;2.50;;;1.67;;
21741;SDS011;11033;47.490;11.116;2022-08-02T06:49:44;4.00;;;2.05;;
21741;SDS011;11033;47.490;11.116;2022-08-02T06:52:09;1.50;;;1.40;;
21741;SDS011;11033;47.490;11.116;2022-08-02T06:54:35;4.55;;;1.92;;
21741;SDS011;11033;47.490;11.116;2022-08-02T06:57:03;3.75;;;2.00;;
21741;SDS011;11033;47.490;11.116;2022-08-02T06:59:28;1.85;;;1.55;;
21741;SDS011;11033;47.490;11.116;2022-08-02T07:01:53;2.27;;;1.60;;
21741;SDS011;11033;47.490;11.116;2022-08-02T07:04:19;1.60;;;1.50;;
21741;SDS011;11033;47.490;11.116;2022-08-02T07:06:44;1.60;;;1.50;;
21741;SDS011;11033;47.490;11.116;2022-08-02T07:09:09;2.13;;;1.75;;
21741;SDS011;11033;47.490;11.116;2022-08-02T07:11:35;2.03;;;1.77;;
21741;SDS011;11033;47.490;11.116;2022-08-02T07:14:00;2.17;;;1.77;;
21741;SDS011;11033;47.490;11.116;2022-08-02T07:16:25;3.77;;;1.70;;
21741;SDS011;11033;47.490;11.116;2022-08-02T07:18:50;2.08;;;1.70;;
21741;SDS011;11033;47.490;11.116;2022-08-02T07:21:16;2.10;;;1.87;;
21741;SDS011;11033;47.490;11.116;2022-08-02T07:23:41;1.73;;;1.63;;
21741;SDS011;11033;47.490;11.116;2022-08-02T07:26:06;3.50;;;1.60;;
21741;SDS011;11033;47.490;11.116;2022-08-02T07:28:32;2.17;;;1.97;;
21741;SDS011;11033;47.490;11.116;2022-08-02T07:30:57;2.13;;;1.93;;
21741;SDS011;11033;47.490;11.116;2022-08-02T07:33:22;3.13;;;1.87;;
21741;SDS011;11033;47.490;11.116;2022-08-02T07:35:47;1.60;;;1.50;;
21741;SDS011;11033;47.490;11.116;2022-08-02T07:38:13;2.10;;;1.90;;
21741;SDS011;11033;47.490;11.116;2022-08-02T07:40:38;2.80;;;1.87;;
21741;SDS011;11033;47.490;11.116;2022-08-02T07:43:03;2.07;;;1.87;;
21741;SDS011;11033;47.490;11.116;2022-08-02T07:45:29;3.78;;;2.05;;
21741;SDS011;11033;47.490;11.116;2022-08-02T07:47:56;2.45;;;1.80;;
21741;SDS011;11033;47.490;11.116;2022-08-02T07:50:21;1.65;;;1.55;;
21741;SDS011;11033;47.490;11.116;2022-08-02T07:52:47;1.88;;;1.77;;
21741;SDS011;11033;47.490;11.116;2022-08-02T07:55:13;2.20;;;1.60;;
21741;SDS011;11033;47.490;11.116;2022-08-02T07:57:40;1.73;;;1.63;;
21741;SDS011;11033;47.490;11.116;2022-08-02T08:00:07;1.60;;;1.50;;
21741;SDS011;11033;47.490;11.116;2022-08-02T08:02:33;1.80;;;1.70;;
21741;SDS011;11033;47.490;11.116;2022-08-02T08:04:59;1.70;;;1.60;;
21741;SDS011;11033;47.490;11.116;2022-08-02T08:07:24;1.80;;;1.70;;
21741;SDS011;11033;47.490;11.116;2022-08-02T08:09:49;4.50;;;2.17;;
21741;SDS011;11033;47.490;11.116;2022-08-02T08:12:15;1.38;;;1.27;;
21741;SDS011;11033;47.490;11.116;2022-08-02T08:14:41;1.65;;;1.55;;
21741;SDS011;11033;47.490;11.116;2022-08-02T08:17:06;2.45;;;1.50;;
21741;SDS011;11033;47.490;11.116;2022-08-02T08:19:32;2.25;;;2.05;;
21741;SDS011;11033;47.490;11.116;2022-08-02T08:21:57;2.30;;;2.10;;
21741;SDS011;11033;47.490;11.116;2022-08-02T08:24:27;1.75;;;1.38;;
21741;SDS011;11033;47.490;11.116;2022-08-02T08:26:53;2.17;;;1.75;;
21741;SDS011;11033;47.490;11.116;2022-08-02T08:29:19;3.33;;;1.98;;
21741;SDS011;11033;47.490;11.116;2022-08-02T08:31:45;2.55;;;1.50;;
21741;SDS011;11033;47.490;11.116;2022-08-02T08:34:10;3.42;;;1.85;;
21741;SDS011;11033;47.490;11.116;2022-08-02T08:36:35;3.27;;;2.00;;
21741;SDS011;11033;47.490;11.116;2022-08-02T08:39:02;1.70;;;1.60;;
21741;SDS011;11033;47.490;11.116;2022-08-02T08:41:28;3.25;;;2.13;;
21741;SDS011;11033;47.490;11.116;2022-08-02T08:43:53;1.95;;;1.85;;
21741;SDS011;11033;47.490;11.116;2022-08-02T08:48:58;1.55;;;1.45;;
21741;SDS011;11033;47.490;11.116;2022-08-02T08:51:35;1.67;;;1.40;;
21741;SDS011;11033;47.490;11.116;2022-08-02T08:54:02;1.73;;;1.63;;
21741;SDS011;11033;47.490;11.116;2022-08-02T08:56:31;1.75;;;1.65;;
21741;SDS011;11033;47.490;11.116;2022-08-02T08:58:58;1.57;;;1.47;;
21741;SDS011;11033;47.490;11.116;2022-08-02T09:01:25;1.60;;;1.50;;
21741;SDS011;11033;47.490;11.116;2022-08-02T09:03:50;2.97;;;1.77;;
21741;SDS011;11033;47.490;11.116;2022-08-02T09:06:15;2.08;;;1.90;;
21741;SDS011;11033;47.490;11.116;2022-08-02T09:08:41;3.33;;;1.70;;
21741;SDS011;11033;47.490;11.116;2022-08-02T09:11:13;2.83;;;1.90;;
21741;SDS011;11033;47.490;11.116;2022-08-02T09:13:46;1.85;;;1.73;;
21741;SDS011;11033;47.490;11.116;2022-08-02T09:16:13;1.98;;;1.65;;
21741;SDS011;11033;47.490;11.116;2022-08-02T09:18:40;2.10;;;1.90;;
21741;SDS011;11033;47.490;11.116;2022-08-02T09:21:09;4.03;;;1.80;;
21741;SDS011;11033;47.490;11.116;2022-08-02T09:26:06;1.80;;;1.70;;
21741;SDS011;11033;47.490;11.116;2022-08-02T09:28:34;1.90;;;1.80;;
21741;SDS011;11033;47.490;11.116;2022-08-02T09:31:05;2.00;;;1.90;;
21741;SDS011;11033;47.490;11.116;2022-08-02T09:33:38;1.85;;;1.75;;
21741;SDS011;11033;47.490;11.116;2022-08-02T09:36:06;2.75;;;1.92;;
21741;SDS011;11033;47.490;11.116;2022-08-02T09:38:39;1.40;;;1.30;;
21741;SDS011;11033;47.490;11.116;2022-08-02T09:41:06;2.83;;;2.17;;
21741;SDS011;11033;47.490;11.116;2022-08-02T09:43:44;5.80;;;4.45;;
21741;SDS011;11033;47.490;11.116;2022-08-02T09:46:14;2.17;;;2.08;;
21741;SDS011;11033;47.490;11.116;2022-08-02T09:51:12;2.28;;;2.08;;
21741;SDS011;11033;47.490;11.116;2022-08-02T09:56:40;1.90;;;1.80;;
21741;SDS011;11033;47.490;11.116;2022-08-02T09:59:08;1.52;;;1.42;;
21741;SDS011;11033;47.490;11.116;2022-08-02T10:01:34;2.20;;;1.90;;
21741;SDS011;11033;47.490;11.116;2022-08-02T10:04:02;1.75;;;1.65;;
21741;SDS011;11033;47.490;11.116;2022-08-02T10:06:29;2.83;;;2.00;;
21741;SDS011;11033;47.490;11.116;2022-08-02T10:08:56;3.17;;;1.60;;
21741;SDS011;11033;47.490;11.116;2022-08-02T10:11:24;1.67;;;1.58;;
21741;SDS011;11033;47.490;11.116;2022-08-02T10:13:51;2.45;;;1.83;;
21741;SDS011;11033;47.490;11.116;2022-08-02T10:16:18;1.88;;;1.60;;
21741;SDS011;11033;47.490;11.116;2022-08-02T10:18:47;1.57;;;1.47;;
21741;SDS011;11033;47.490;11.116;2022-08-02T10:23:59;1.80;;;1.70;;
21741;SDS011;11033;47.490;11.116;2022-08-02T10:26:30;2.55;;;1.77;;
21741;SDS011;11033;47.490;11.116;2022-08-02T10:28:56;1.48;;;1.30;;
21741;SDS011;11033;47.490;11.116;2022-08-02T10:31:23;1.13;;;1.13;;
21741;SDS011;11033;47.490;11.116;2022-08-02T10:33:51;1.63;;;1.53;;
21741;SDS011;11033;47.490;11.116;2022-08-02T10:36:20;1.73;;;1.40;;
21741;SDS011;11033;47.490;11.116;2022-08-02T10:38:47;1.75;;;1.65;;
21741;SDS011;11033;47.490;11.116;2022-08-02T10:41:14;1.55;;;1.30;;
21741;SDS011;11033;47.490;11.116;2022-08-02T10:43:59;1.70;;;1.60;;
21741;SDS011;11033;47.490;11.116;2022-08-02T10:49:01;1.55;;;1.40;;
21741;SDS011;11033;47.490;11.116;2022-08-02T10:54:17;1.63;;;1.52;;
21741;SDS011;11033;47.490;11.116;2022-08-02T10:56:47;2.38;;;0.98;;
21741;SDS011;11033;47.490;11.116;2022-08-02T10:59:32;1.50;;;1.33;;
21741;SDS011;11033;47.490;11.116;2022-08-02T11:02:03;1.73;;;1.55;;
21741;SDS011;11033;47.490;11.116;2022-08-02T11:09:40;1.60;;;1.50;;
21741;SDS011;11033;47.490;11.116;2022-08-02T11:12:10;2.25;;;1.50;;
21741;SDS011;11033;47.490;11.116;2022-08-02T11:17:04;1.50;;;1.40;;
21741;SDS011;11033;47.490;11.116;2022-08-02T11:19:33;2.15;;;1.92;;
21741;SDS011;11033;47.490;11.116;2022-08-02T11:22:03;1.73;;;1.55;;
21741;SDS011;11033;47.490;11.116;2022-08-02T11:24:31;1.67;;;1.58;;
21741;SDS011;11033;47.490;11.116;2022-08-02T11:26:59;1.77;;;1.67;;
21741;SDS011;11033;47.490;11.116;2022-08-02T11:29:36;2.22;;;1.63;;
21741;SDS011;11033;47.490;11.116;2022-08-02T11:32:07;1.80;;;1.70;;
21741;SDS011;11033;47.490;11.116;2022-08-02T11:34:39;1.67;;;1.58;;
21741;SDS011;11033;47.490;11.116;2022-08-02T11:37:04;1.58;;;1.48;;
21741;SDS011;11033;47.490;11.116;2022-08-02T11:39:30;2.20;;;1.70;;
21741;SDS011;11033;47.490;11.116;2022-08-02T11:41:56;1.73;;;1.60;;
21741;SDS011;11033;47.490;11.116;2022-08-02T11:44:24;2.25;;;1.70;;
21741;SDS011;11033;47.490;11.116;2022-08-02T11:46:55;1.50;;;1.50;;
21741;SDS011;11033;47.490;11.116;2022-08-02T11:49:22;1.83;;;1.73;;
21741;SDS011;11033;47.490;11.116;2022-08-02T11:52:00;1.77;;;1.67;;
21741;SDS011;11033;47.490;11.116;2022-08-02T11:54:31;1.67;;;1.58;;
21741;SDS011;11033;47.490;11.116;2022-08-02T11:59:50;2.85;;;1.23;;
21741;SDS011;11033;47.490;11.116;2022-08-02T12:02:18;1.98;;;1.85;;
21741;SDS011;11033;47.490;11.116;2022-08-02T12:04:58;1.70;;;1.60;;
21741;SDS011;11033;47.490;11.116;2022-08-02T12:07:33;1.77;;;1.67;;
21741;SDS011;11033;47.490;11.116;2022-08-02T12:10:01;2.17;;;1.77;;
21741;SDS011;11033;47.490;11.116;2022-08-02T12:13:02;1.80;;;1.70;;
21741;SDS011;11033;47.490;11.116;2022-08-02T12:18:09;1.92;;;1.50;;
21741;SDS011;11033;47.490;11.116;2022-08-02T12:20:55;2.10;;;1.65;;
21741;SDS011;11033;47.490;11.116;2022-08-02T12:23:21;2.50;;;1.70;;
21741;SDS011;11033;47.490;11.116;2022-08-02T12:26:02;2.35;;;1.98;;
21741;SDS011;11033;47.490;11.116;2022-08-02T12:28:31;1.58;;;1.48;;
21741;SDS011;11033;47.490;11.116;2022-08-02T12:30:58;1.55;;;1.45;;
21741;SDS011;11033;47.490;11.116;2022-08-02T12:33:28;1.63;;;1.52;;
21741;SDS011;11033;47.490;11.116;2022-08-02T12:36:18;2.30;;;1.80;;
21741;SDS011;11033;47.490;11.116;2022-08-02T12:38:55;1.80;;;1.70;;
21741;SDS011;11033;47.490;11.116;2022-08-02T12:41:24;1.88;;;1.77;;
21741;SDS011;11033;47.490;11.116;2022-08-02T12:43:51;1.70;;;1.60;;
21741;SDS011;11033;47.490;11.116;2022-08-02T12:46:18;2.47;;;1.70;;
21741;SDS011;11033;47.490;11.116;2022-08-02T12:48:45;1.73;;;1.63;;
21741;SDS011;11033;47.490;11.116;2022-08-02T12:53:53;1.77;;;1.60;;
21741;SDS011;11033;47.490;11.116;2022-08-02T12:56:31;1.65;;;1.50;;
21741;SDS011;11033;47.490;11.116;2022-08-02T12:59:00;2.08;;;1.73;;
21741;SDS011;11033;47.490;11.116;2022-08-02T13:01:26;2.10;;;1.88;;
21741;SDS011;11033;47.490;11.116;2022-08-02T13:03:52;1.90;;;1.80;;
21741;SDS011;11033;47.490;11.116;2022-08-02T13:06:18;2.00;;;1.90;;
21741;SDS011;11033;47.490;11.116;2022-08-02T13:08:44;1.90;;;1.80;;
21741;SDS011;11033;47.490;11.116;2022-08-02T13:11:10;1.95;;;1.85;;
21741;SDS011;11033;47.490;11.116;2022-08-02T13:13:36;1.98;;;1.60;;
21741;SDS011;11033;47.490;11.116;2022-08-02T13:16:01;2.10;;;1.90;;
21741;SDS011;11033;47.490;11.116;2022-08-02T13:18:27;1.70;;;1.60;;
21741;SDS011;11033;47.490;11.116;2022-08-02T13:20:52;1.97;;;1.70;;
21741;SDS011;11033;47.490;11.116;2022-08-02T13:23:17;2.10;;;1.90;;
21741;SDS011;11033;47.490;11.116;2022-08-02T13:25:43;1.92;;;1.80;;
21741;SDS011;11033;47.490;11.116;2022-08-02T13:28:08;2.85;;;1.63;;
21741;SDS011;11033;47.490;11.116;2022-08-02T13:30:34;1.52;;;1.42;;
21741;SDS011;11033;47.490;11.116;2022-08-02T13:32:59;2.50;;;1.73;;
21741;SDS011;11033;47.490;11.116;2022-08-02T13:35:24;2.57;;;1.63;;
21741;SDS011;11033;47.490;11.116;2022-08-02T13:37:49;1.90;;;1.80;;
21741;SDS011;11033;47.490;11.116;2022-08-02T13:40:15;1.50;;;1.40;;
21741;SDS011;11033;47.490;11.116;2022-08-02T13:42:40;1.67;;;1.58;;
21741;SDS011;11033;47.490;11.116;2022-08-02T13:45:06;1.67;;;1.58;;
21741;SDS011;11033;47.490;11.116;2022-08-02T13:47:31;1.67;;;1.42;;
21741;SDS011;11033;47.490;11.116;2022-08-02T13:49:57;1.80;;;1.70;;
21741;SDS011;11033;47.490;11.116;2022-08-02T13:52:22;1.48;;;1.38;;
21741;SDS011;11033;47.490;11.116;2022-08-02T13:54:47;3.08;;;1.70;;
21741;SDS011;11033;47.490;11.116;2022-08-02T13:57:13;3.33;;;1.60;;
21741;SDS011;11033;47.490;11.116;2022-08-02T13:59:38;1.40;;;1.30;;
21741;SDS011;11033;47.490;11.116;2022-08-02T14:02:03;2.15;;;1.55;;
21741;SDS011;11033;47.490;11.116;2022-08-02T14:04:29;1.55;;;1.45;;
21741;SDS011;11033;47.490;11.116;2022-08-02T14:06:55;2.22;;;2.08;;
21741;SDS011;11033;47.490;11.116;2022-08-02T14:09:20;1.60;;;1.50;;
21741;SDS011;11033;47.490;11.116;2022-08-02T14:11:46;2.50;;;1.42;;
21741;SDS011;11033;47.490;11.116;2022-08-02T14:14:12;1.65;;;1.55;;
21741;SDS011;11033;47.490;11.116;2022-08-02T14:16:37;1.67;;;1.58;;
21741;SDS011;11033;47.490;11.116;2022-08-02T14:19:02;1.88;;;1.77;;
21741;SDS011;11033;47.490;11.116;2022-08-02T14:21:29;1.55;;;1.45;;
21741;SDS011;11033;47.490;11.116;2022-08-02T14:23:54;1.60;;;1.40;;
21741;SDS011;11033;47.490;11.116;2022-08-02T14:26:19;1.70;;;1.60;;
21741;SDS011;11033;47.490;11.116;2022-08-02T14:28:45;1.40;;;1.40;;
21741;SDS011;11033;47.490;11.116;2022-08-02T14:31:10;1.60;;;1.50;;
21741;SDS011;11033;47.490;11.116;2022-08-02T14:33:35;1.87;;;1.77;;
21741;SDS011;11033;47.490;11.116;2022-08-02T14:36:00;1.53;;;1.43;;
21741;SDS011;11033;47.490;11.116;2022-08-02T14:38:26;1.92;;;1.83;;
21741;SDS011;11033;47.490;11.116;2022-08-02T14:40:51;1.93;;;1.83;;
21741;SDS011;11033;47.490;11.116;2022-08-02T14:43:16;1.67;;;1.58;;
21741;SDS011;11033;47.490;11.116;2022-08-02T14:46:00;1.85;;;1.75;;
21741;SDS011;11033;47.490;11.116;2022-08-02T14:48:26;1.90;;;1.80;;
21741;SDS011;11033;47.490;11.116;2022-08-02T14:50:52;1.80;;;1.70;;
21741;SDS011;11033;47.490;11.116;2022-08-02T14:53:17;1.60;;;1.60;;
21741;SDS011;11033;47.490;11.116;2022-08-02T14:55:43;1.65;;;1.60;;
21741;SDS011;11033;47.490;11.116;2022-08-02T14:58:09;1.48;;;1.38;;
21741;SDS011;11033;47.490;11.116;2022-08-02T15:00:35;1.90;;;1.80;;
21741;SDS011;11033;47.490;11.116;2022-08-02T15:03:00;1.90;;;1.80;;
21741;SDS011;11033;47.490;11.116;2022-08-02T15:05:25;1.90;;;1.80;;
21741;SDS011;11033;47.490;11.116;2022-08-02T15:07:51;1.77;;;1.67;;
21741;SDS011;11033;47.490;11.116;2022-08-02T15:10:16;2.93;;;1.90;;
21741;SDS011;11033;47.490;11.116;2022-08-02T15:12:41;1.40;;;1.40;;
21741;SDS011;11033;47.490;11.116;2022-08-02T15:15:07;3.13;;;2.15;;
21741;SDS011;11033;47.490;11.116;2022-08-02T15:17:32;1.75;;;1.65;;
21741;SDS011;11033;47.490;11.116;2022-08-02T15:19:58;1.75;;;1.65;;
21741;SDS011;11033;47.490;11.116;2022-08-02T15:22:23;1.60;;;1.50;;
21741;SDS011;11033;47.490;11.116;2022-08-02T15:24:48;2.00;;;1.90;;
21741;SDS011;11033;47.490;11.116;2022-08-02T15:27:14;1.83;;;1.73;;